Clayton, CA

4:54 PM PST on February 10, 2016 (GMT -0800)
near Regency Gate | | Change Station
CLOSE
Current Station
Personal Weather Station
Location: Clayton, CA
Elevation: 522 ft
Nearby Weather Stations

Elev 522 ft 37.93 °N, 121.93 °W | Updated 4 seconds ago

Partly Cloudy
Partly Cloudy
64.8 °F
Feels Like 64.8 °F
N
2.0
Wind Variable Wind from SSE
Gusts 2.5 mph

Today
High -- | Low -- °F
--% Chance of Precip.
Yesterday
High -- | Low -- °F
Precip. -- in
Pressure 30.15 in
Visibility 10.0 miles
Clouds Clear
Dew Point 55 °F
Humidity 70%
Rainfall 0.00 in
Snow Depth Not available.
7:03 AM 5:40 PM
Waxing Crescent, 8% visible
METAR KCCR 102353Z 01005KT 10SM CLR 20/09 A3018 RMK AO2 SLP208 T02000094 10217 20133 56014
Pressure 30.15 in
Visibility 10.0 miles
Clouds Clear
Dew Point 55 °F
Humidity 70%
Rainfall 0.00 in
Snow Depth Not available.
7:03 AM 5:40 PM
Waxing Crescent, 8% visible
METAR KCCR 102353Z 01005KT 10SM CLR 20/09 A3018 RMK AO2 SLP208 T02000094 10217 20133 56014

10-Day Weather Forecast

Almanac

Astronomy

Feb. 10, 2016 Rise Set
Actual Time
Civil Twilight
Nautical Twilight
Astronomical Twilight
Moon
Length of Visible Light
Length of Day
Tomorrow will be .
, % of the Moon is Illuminated

Today's Extremes

State Highs State Lows

Community

WunderPhotos

Upload Photos

1,891,948 photos uploaded!

WunderBlog® & News

Nearby

Air Quality

  Air Quality AQ Index Pollutant
Not available.

Snow Depth

Station Depth Elevation

Earthquake Activity

City Distance Mag. Time & Date
Minimum magnitude displayed is 2.5.

Coastal Water Temperatures

Place Temperature

Stations

Nearby Weather Stations

Station Location Temp. Windchill Dew Point Humidity Wind Precip. Elev Updated Type
                   

Watches & Warnings

There are currently no watches in effect.